sensor_id;sensor_type;location;lat;lon;timestamp;pressure;altitude;pressure_sealevel;temperature;humidity
29169;BME280;16219;42.864;23.360;2023-04-07T00:01:56;95602.69;;;0.90;100.00
29169;BME280;16219;42.864;23.360;2023-04-07T00:04:23;95609.94;;;0.93;100.00
29169;BME280;16219;42.864;23.360;2023-04-07T00:06:50;95597.44;;;0.80;100.00
29169;BME280;16219;42.864;23.360;2023-04-07T00:09:18;95614.63;;;0.86;100.00
29169;BME280;16219;42.864;23.360;2023-04-07T00:11:45;95603.84;;;0.67;100.00
29169;BME280;16219;42.864;23.360;2023-04-07T00:14:13;95604.16;;;0.76;100.00
29169;BME280;16219;42.864;23.360;2023-04-07T00:16:40;95602.88;;;0.79;100.00
29169;BME280;16219;42.864;23.360;2023-04-07T00:19:07;95602.88;;;0.73;100.00
29169;BME280;16219;42.864;23.360;2023-04-07T00:21:34;95601.06;;;0.79;100.00
29169;BME280;16219;42.864;23.360;2023-04-07T00:24:01;95604.47;;;0.85;100.00
29169;BME280;16219;42.864;23.360;2023-04-07T00:26:30;95607.56;;;0.77;100.00
29169;BME280;16219;42.864;23.360;2023-04-07T00:28:57;95606.69;;;0.61;100.00
29169;BME280;16219;42.864;23.360;2023-04-07T00:31:25;95594.78;;;0.65;100.00
29169;BME280;16219;42.864;23.360;2023-04-07T00:33:52;95603.38;;;0.75;100.00
29169;BME280;16219;42.864;23.360;2023-04-07T00:36:20;95604.69;;;0.73;100.00
29169;BME280;16219;42.864;23.360;2023-04-07T00:38:47;95598.94;;;0.71;100.00
29169;BME280;16219;42.864;23.360;2023-04-07T00:41:15;95610.88;;;0.72;100.00
29169;BME280;16219;42.864;23.360;2023-04-07T00:43:43;95606.53;;;0.78;100.00
29169;BME280;16219;42.864;23.360;2023-04-07T00:46:11;95608.78;;;0.64;100.00
29169;BME280;16219;42.864;23.360;2023-04-07T00:48:38;95606.72;;;0.66;100.00
29169;BME280;16219;42.864;23.360;2023-04-07T00:51:05;95608.78;;;0.64;100.00
29169;BME280;16219;42.864;23.360;2023-04-07T00:53:33;95610.56;;;0.58;100.00
29169;BME280;16219;42.864;23.360;2023-04-07T00:56:00;95602.69;;;0.43;100.00
29169;BME280;16219;42.864;23.360;2023-04-07T00:58:27;95603.75;;;0.47;100.00
29169;BME280;16219;42.864;23.360;2023-04-07T01:01:00;95606.09;;;0.48;100.00
29169;BME280;16219;42.864;23.360;2023-04-07T01:03:33;95607.66;;;0.49;100.00
29169;BME280;16219;42.864;23.360;2023-04-07T01:06:04;95596.75;;;0.47;100.00
29169;BME280;16219;42.864;23.360;2023-04-07T01:08:39;95603.25;;;0.50;100.00
29169;BME280;16219;42.864;23.360;2023-04-07T01:11:12;95600.94;;;0.54;100.00
29169;BME280;16219;42.864;23.360;2023-04-07T01:13:45;95600.78;;;0.28;100.00
29169;BME280;16219;42.864;23.360;2023-04-07T01:16:33;95599.19;;;0.22;100.00
29169;BME280;16219;42.864;23.360;2023-04-07T01:19:08;95599.50;;;0.31;100.00
29169;BME280;16219;42.864;23.360;2023-04-07T01:21:43;95601.09;;;0.37;100.00
29169;BME280;16219;42.864;23.360;2023-04-07T01:24:30;95592.81;;;0.40;100.00
29169;BME280;16219;42.864;23.360;2023-04-07T01:27:13;95600.34;;;0.41;100.00
29169;BME280;16219;42.864;23.360;2023-04-07T01:29:46;95591.25;;;0.39;100.00
29169;BME280;16219;42.864;23.360;2023-04-07T01:32:15;95598.75;;;0.35;100.00
29169;BME280;16219;42.864;23.360;2023-04-07T01:34:46;95597.19;;;0.34;100.00
29169;BME280;16219;42.864;23.360;2023-04-07T01:37:15;95589.91;;;0.31;100.00
29169;BME280;16219;42.864;23.360;2023-04-07T01:39:43;95594.28;;;0.26;100.00
29169;BME280;16219;42.864;23.360;2023-04-07T01:42:11;95590.63;;;0.21;100.00
29169;BME280;16219;42.864;23.360;2023-04-07T01:44:39;95601.81;;;0.27;100.00
29169;BME280;16219;42.864;23.360;2023-04-07T01:47:09;95590.88;;;0.25;100.00
29169;BME280;16219;42.864;23.360;2023-04-07T01:49:37;95596.00;;;0.15;100.00
29169;BME280;16219;42.864;23.360;2023-04-07T01:52:07;95582.78;;;0.16;100.00
29169;BME280;16219;42.864;23.360;2023-04-07T01:54:34;95587.94;;;0.11;100.00
29169;BME280;16219;42.864;23.360;2023-04-07T01:57:02;95583.31;;;0.13;100.00
29169;BME280;16219;42.864;23.360;2023-04-07T01:59:30;95574.16;;;0.06;100.00
29169;BME280;16219;42.864;23.360;2023-04-07T02:01:59;95575.22;;;0.10;100.00
29169;BME280;16219;42.864;23.360;2023-04-07T02:04:31;95576.53;;;0.12;100.00
29169;BME280;16219;42.864;23.360;2023-04-07T02:07:07;95562.50;;;0.08;100.00
29169;BME280;16219;42.864;23.360;2023-04-07T02:09:40;95577.81;;;0.10;100.00
29169;BME280;16219;42.864;23.360;2023-04-07T02:12:12;95580.72;;;0.13;100.00
29169;BME280;16219;42.864;23.360;2023-04-07T02:14:50;95586.16;;;0.17;100.00
29169;BME280;16219;42.864;23.360;2023-04-07T02:17:18;95586.41;;;0.15;100.00
29169;BME280;16219;42.864;23.360;2023-04-07T02:19:47;95589.25;;;0.14;100.00
29169;BME280;16219;42.864;23.360;2023-04-07T02:22:16;95585.06;;;0.08;100.00
29169;BME280;16219;42.864;23.360;2023-04-07T02:24:44;95585.91;;;0.13;100.00
29169;BME280;16219;42.864;23.360;2023-04-07T02:27:11;95577.88;;;0.20;100.00
29169;BME280;16219;42.864;23.360;2023-04-07T02:29:38;95583.31;;;0.13;100.00
29169;BME280;16219;42.864;23.360;2023-04-07T02:32:06;95587.25;;;-0.11;100.00
29169;BME280;16219;42.864;23.360;2023-04-07T02:34:33;95579.59;;;0.04;100.00
29169;BME280;16219;42.864;23.360;2023-04-07T02:37:02;95590.88;;;-0.12;100.00
29169;BME280;16219;42.864;23.360;2023-04-07T02:39:29;95580.72;;;-0.19;100.00
29169;BME280;16219;42.864;23.360;2023-04-07T02:41:56;95569.59;;;-0.14;100.00
29169;BME280;16219;42.864;23.360;2023-04-07T02:44:23;95579.88;;;0.08;100.00
29169;BME280;16219;42.864;23.360;2023-04-07T02:46:50;95577.81;;;0.10;100.00
29169;BME280;16219;42.864;23.360;2023-04-07T02:49:17;95576.53;;;0.12;100.00
29169;BME280;16219;42.864;23.360;2023-04-07T02:51:45;95589.25;;;0.14;100.00
29169;BME280;16219;42.864;23.360;2023-04-07T02:54:14;95589.50;;;0.12;100.00
29169;BME280;16219;42.864;23.360;2023-04-07T02:56:41;95582.91;;;-0.01;100.00
29169;BME280;16219;42.864;23.360;2023-04-07T02:59:08;95585.50;;;-0.01;100.00
29169;BME280;16219;42.864;23.360;2023-04-07T03:01:40;95586.84;;;0.02;100.00
29169;BME280;16219;42.864;23.360;2023-04-07T03:04:07;95588.91;;;0.00;100.00
29169;BME280;16219;42.864;23.360;2023-04-07T03:06:34;95598.00;;;0.03;100.00
29169;BME280;16219;42.864;23.360;2023-04-07T03:09:13;95601.06;;;-0.01;100.00
29169;BME280;16219;42.864;23.360;2023-04-07T03:11:40;95595.84;;;-0.06;100.00
29169;BME280;16219;42.864;23.360;2023-04-07T03:14:08;95589.03;;;-0.17;100.00
29169;BME280;16219;42.864;23.360;2023-04-07T03:16:41;95591.91;;;-0.13;100.00
29169;BME280;16219;42.864;23.360;2023-04-07T03:19:11;95590.13;;;-0.40;100.00
29169;BME280;16219;42.864;23.360;2023-04-07T03:21:42;95590.13;;;-0.40;100.00
29169;BME280;16219;42.864;23.360;2023-04-07T03:24:09;95588.16;;;-0.28;100.00
29169;BME280;16219;42.864;23.360;2023-04-07T03:26:38;95589.72;;;-0.27;100.00
29169;BME280;16219;42.864;23.360;2023-04-07T03:29:13;95591.03;;;-0.24;100.00
29169;BME280;16219;42.864;23.360;2023-04-07T03:31:42;95593.03;;;-0.31;100.00
29169;BME280;16219;42.864;23.360;2023-04-07T03:34:12;95592.09;;;-0.25;100.00
29169;BME280;16219;42.864;23.360;2023-04-07T03:36:39;95596.53;;;-0.20;100.00
29169;BME280;16219;42.864;23.360;2023-04-07T03:39:06;95598.13;;;-0.14;100.00
29169;BME280;16219;42.864;23.360;2023-04-07T03:41:33;95590.63;;;-0.11;100.00
29169;BME280;16219;42.864;23.360;2023-04-07T03:44:01;95602.84;;;-0.06;100.00
29169;BME280;16219;42.864;23.360;2023-04-07T03:46:30;95582.81;;;-0.16;100.00
29169;BME280;16219;42.864;23.360;2023-04-07T03:48:58;95608.84;;;-0.01;100.00
29169;BME280;16219;42.864;23.360;2023-04-07T03:51:25;95605.78;;;0.03;100.00
29169;BME280;16219;42.864;23.360;2023-04-07T03:53:54;95595.84;;;-0.06;100.00
29169;BME280;16219;42.864;23.360;2023-04-07T03:56:35;95607.41;;;0.09;100.00
29169;BME280;16219;42.864;23.360;2023-04-07T03:59:05;95614.16;;;0.15;100.00
29169;BME280;16219;42.864;23.360;2023-04-07T04:01:36;95604.25;;;0.07;100.00
29169;BME280;16219;42.864;23.360;2023-04-07T04:04:09;95612.06;;;0.12;100.00
29169;BME280;16219;42.864;23.360;2023-04-07T04:06:36;95609.25;;;0.13;100.00
29169;BME280;16219;42.864;23.360;2023-04-07T04:09:16;95607.91;;;0.11;100.00
29169;BME280;16219;42.864;23.360;2023-04-07T04:11:45;95613.22;;;0.26;100.00
29169;BME280;16219;42.864;23.360;2023-04-07T04:14:15;95605.19;;;0.28;100.00
29169;BME280;16219;42.864;23.360;2023-04-07T04:16:49;95607.50;;;0.29;100.00
29169;BME280;16219;42.864;23.360;2023-04-07T04:19:33;95611.97;;;0.34;100.00
29169;BME280;16219;42.864;23.360;2023-04-07T04:22:05;95612.22;;;0.32;100.00
29169;BME280;16219;42.864;23.360;2023-04-07T04:24:39;95622.38;;;0.39;100.00
29169;BME280;16219;42.864;23.360;2023-04-07T04:27:07;95624.25;;;0.43;100.00
29169;BME280;16219;42.864;23.360;2023-04-07T04:29:36;95615.47;;;0.55;100.00
29169;BME280;16219;42.864;23.360;2023-04-07T04:32:05;95625.06;;;0.54;100.00
29169;BME280;16219;42.864;23.360;2023-04-07T04:34:33;95625.34;;;0.58;100.00
29169;BME280;16219;42.864;23.360;2023-04-07T04:37:00;95619.38;;;0.57;100.00
29169;BME280;16219;42.864;23.360;2023-04-07T04:39:27;95629.97;;;0.50;100.00
29169;BME280;16219;42.864;23.360;2023-04-07T04:41:56;95633.44;;;0.66;100.00
29169;BME280;16219;42.864;23.360;2023-04-07T04:44:29;95628.53;;;0.70;100.00
29169;BME280;16219;42.864;23.360;2023-04-07T04:46:58;95628.81;;;0.73;100.00
29169;BME280;16219;42.864;23.360;2023-04-07T04:49:25;95630.38;;;0.69;100.00
29169;BME280;16219;42.864;23.360;2023-04-07T04:51:56;95636.34;;;0.75;100.00
29169;BME280;16219;42.864;23.360;2023-04-07T04:54:23;95627.78;;;0.74;100.00
29169;BME280;16219;42.864;23.360;2023-04-07T04:56:50;95632.47;;;0.78;100.00
29169;BME280;16219;42.864;23.360;2023-04-07T04:59:19;95642.69;;;0.89;100.00
29169;BME280;16219;42.864;23.360;2023-04-07T05:02:01;95627.63;;;0.91;100.00
29169;BME280;16219;42.864;23.360;2023-04-07T05:04:29;95638.31;;;1.00;100.00
29169;BME280;16219;42.864;23.360;2023-04-07T05:07:03;95638.56;;;0.98;100.00
29169;BME280;16219;42.864;23.360;2023-04-07T05:09:31;95638.50;;;0.93;100.00
29169;BME280;16219;42.864;23.360;2023-04-07T05:11:58;95620.59;;;0.87;100.00
29169;BME280;16219;42.864;23.360;2023-04-07T05:14:29;95637.03;;;1.08;100.00
29169;BME280;16219;42.864;23.360;2023-04-07T05:17:05;95646.19;;;1.15;100.00
29169;BME280;16219;42.864;23.360;2023-04-07T05:19:32;95650.59;;;1.20;100.00
29169;BME280;16219;42.864;23.360;2023-04-07T05:22:22;95656.88;;;1.29;100.00
29169;BME280;16219;42.864;23.360;2023-04-07T05:24:50;95650.94;;;1.39;100.00
29169;BME280;16219;42.864;23.360;2023-04-07T05:27:18;95652.47;;;1.40;100.00
29169;BME280;16219;42.864;23.360;2023-04-07T05:29:49;95655.91;;;1.45;100.00
29169;BME280;16219;42.864;23.360;2023-04-07T05:32:27;95656.69;;;1.51;100.00
29169;BME280;16219;42.864;23.360;2023-04-07T05:34:56;95646.56;;;1.49;100.00
29169;BME280;16219;42.864;23.360;2023-04-07T05:37:27;95649.66;;;1.52;100.00
29169;BME280;16219;42.864;23.360;2023-04-07T05:39:56;95653.31;;;1.61;100.00
29169;BME280;16219;42.864;23.360;2023-04-07T05:42:23;95649.44;;;1.68;100.00
29169;BME280;16219;42.864;23.360;2023-04-07T05:44:54;95645.56;;;1.66;100.00
29169;BME280;16219;42.864;23.360;2023-04-07T05:47:25;95647.13;;;1.77;100.00
29169;BME280;16219;42.864;23.360;2023-04-07T05:49:53;95655.47;;;1.84;100.00
29169;BME280;16219;42.864;23.360;2023-04-07T05:52:20;95662.00;;;1.92;100.00
29169;BME280;16219;42.864;23.360;2023-04-07T05:54:54;95657.31;;;1.99;100.00
29169;BME280;16219;42.864;23.360;2023-04-07T05:57:26;95654.72;;;2.04;100.00
29169;BME280;16219;42.864;23.360;2023-04-07T05:59:55;95650.81;;;2.07;100.00
29169;BME280;16219;42.864;23.360;2023-04-07T06:02:23;95655.50;;;2.25;100.00
29169;BME280;16219;42.864;23.360;2023-04-07T06:04:53;95655.50;;;2.30;100.00
29169;BME280;16219;42.864;23.360;2023-04-07T06:07:20;95653.19;;;2.34;100.00
29169;BME280;16219;42.864;23.360;2023-04-07T06:09:48;95658.88;;;2.41;100.00
29169;BME280;16219;42.864;23.360;2023-04-07T06:12:15;95649.25;;;2.52;100.00
29169;BME280;16219;42.864;23.360;2023-04-07T06:14:46;95649.75;;;2.54;100.00
29169;BME280;16219;42.864;23.360;2023-04-07T06:17:17;95649.75;;;2.64;100.00
29169;BME280;16219;42.864;23.360;2023-04-07T06:19:47;95661.69;;;2.90;100.00
29169;BME280;16219;42.864;23.360;2023-04-07T06:22:15;95657.25;;;2.91;100.00
29169;BME280;16219;42.864;23.360;2023-04-07T06:24:42;95662.19;;;2.92;100.00
29169;BME280;16219;42.864;23.360;2023-04-07T06:27:09;95655.41;;;3.01;100.00
29169;BME280;16219;42.864;23.360;2023-04-07T06:29:37;95651.75;;;3.03;100.00
29169;BME280;16219;42.864;23.360;2023-04-07T06:32:05;95650.44;;;3.10;100.00
29169;BME280;16219;42.864;23.360;2023-04-07T06:34:34;95653.72;;;3.36;100.00
29169;BME280;16219;42.864;23.360;2023-04-07T06:37:01;95647.72;;;3.41;100.00
29169;BME280;16219;42.864;23.360;2023-04-07T06:39:31;95655.44;;;3.61;100.00
29169;BME280;16219;42.864;23.360;2023-04-07T06:41:58;95658.56;;;3.63;100.00
29169;BME280;16219;42.864;23.360;2023-04-07T06:44:26;95652.50;;;3.78;100.00
29169;BME280;16219;42.864;23.360;2023-04-07T06:46:53;95662.56;;;3.90;100.00
29169;BME280;16219;42.864;23.360;2023-04-07T06:49:20;95656.16;;;4.11;100.00
29169;BME280;16219;42.864;23.360;2023-04-07T06:51:47;95651.72;;;4.17;100.00
29169;BME280;16219;42.864;23.360;2023-04-07T06:54:15;95654.53;;;4.25;100.00
29169;BME280;16219;42.864;23.360;2023-04-07T06:56:43;95652.84;;;4.40;100.00
29169;BME280;16219;42.864;23.360;2023-04-07T06:59:10;95653.38;;;4.66;100.00
29169;BME280;16219;42.864;23.360;2023-04-07T07:01:37;95649.53;;;4.87;100.00
29169;BME280;16219;42.864;23.360;2023-04-07T07:04:05;95661.16;;;5.00;100.00
29169;BME280;16219;42.864;23.360;2023-04-07T07:06:32;95656.28;;;5.17;100.00
29169;BME280;16219;42.864;23.360;2023-04-07T07:08:59;95661.81;;;5.35;100.00
29169;BME280;16219;42.864;23.360;2023-04-07T07:11:27;95652.03;;;5.45;100.00
29169;BME280;16219;42.864;23.360;2023-04-07T07:13:56;95657.00;;;5.66;100.00
29169;BME280;16219;42.864;23.360;2023-04-07T07:16:23;95660.41;;;5.85;100.00
29169;BME280;16219;42.864;23.360;2023-04-07T07:18:51;95645.66;;;5.94;97.19
29169;BME280;16219;42.864;23.360;2023-04-07T07:21:18;95656.47;;;6.07;99.36
29169;BME280;16219;42.864;23.360;2023-04-07T07:23:45;95665.19;;;6.21;85.38
29169;BME280;16219;42.864;23.360;2023-04-07T07:26:12;95670.63;;;6.06;80.46
29169;BME280;16219;42.864;23.360;2023-04-07T07:28:40;95669.44;;;6.17;75.02
29169;BME280;16219;42.864;23.360;2023-04-07T07:31:09;95663.84;;;6.05;64.41
29169;BME280;16219;42.864;23.360;2023-04-07T07:33:39;95667.81;;;6.21;70.41
29169;BME280;16219;42.864;23.360;2023-04-07T07:36:08;95670.38;;;6.40;65.85
29169;BME280;16219;42.864;23.360;2023-04-07T07:38:36;95669.69;;;6.67;73.12
29169;BME280;16219;42.864;23.360;2023-04-07T07:41:03;95670.31;;;6.78;63.55
29169;BME280;16219;42.864;23.360;2023-04-07T07:43:32;95677.31;;;6.96;61.53
29169;BME280;16219;42.864;23.360;2023-04-07T07:45:59;95680.56;;;7.07;58.75
29169;BME280;16219;42.864;23.360;2023-04-07T07:48:28;95673.34;;;6.98;60.03
29169;BME280;16219;42.864;23.360;2023-04-07T07:50:55;95678.72;;;7.07;61.53
29169;BME280;16219;42.864;23.360;2023-04-07T07:53:22;95685.03;;;7.06;60.19
29169;BME280;16219;42.864;23.360;2023-04-07T07:55:50;95680.81;;;6.91;56.76
29169;BME280;16219;42.864;23.360;2023-04-07T07:58:29;95684.94;;;7.11;60.47
29169;BME280;16219;42.864;23.360;2023-04-07T08:00:57;95688.34;;;7.25;57.80
29169;BME280;16219;42.864;23.360;2023-04-07T08:03:24;95680.06;;;7.46;58.80
29169;BME280;16219;42.864;23.360;2023-04-07T08:05:53;95692.53;;;7.54;60.49
29169;BME280;16219;42.864;23.360;2023-04-07T08:08:20;95682.69;;;7.60;59.55
29169;BME280;16219;42.864;23.360;2023-04-07T08:10:47;95691.34;;;7.46;57.26
29169;BME280;16219;42.864;23.360;2023-04-07T08:13:15;95680.97;;;7.14;56.38
29169;BME280;16219;42.864;23.360;2023-04-07T08:15:42;95679.69;;;7.25;56.34
29169;BME280;16219;42.864;23.360;2023-04-07T08:18:09;95685.91;;;7.01;55.46
29169;BME280;16219;42.864;23.360;2023-04-07T08:20:37;95682.41;;;7.20;56.46
29169;BME280;16219;42.864;23.360;2023-04-07T08:23:06;95683.97;;;7.21;55.40
29169;BME280;16219;42.864;23.360;2023-04-07T08:25:33;95686.66;;;7.02;55.20
29169;BME280;16219;42.864;23.360;2023-04-07T08:28:01;95693.44;;;6.75;56.57
29169;BME280;16219;42.864;23.360;2023-04-07T08:30:28;95692.47;;;6.85;55.69
29169;BME280;16219;42.864;23.360;2023-04-07T08:32:56;95687.84;;;7.10;57.56
29169;BME280;16219;42.864;23.360;2023-04-07T08:35:23;95688.22;;;7.17;55.50
29169;BME280;16219;42.864;23.360;2023-04-07T08:37:50;95686.81;;;6.78;55.40
29169;BME280;16219;42.864;23.360;2023-04-07T08:40:19;95681.28;;;6.80;57.95
29169;BME280;16219;42.864;23.360;2023-04-07T08:42:47;95674.03;;;7.04;62.24
29169;BME280;16219;42.864;23.360;2023-04-07T08:45:16;95677.84;;;7.12;56.00
29169;BME280;16219;42.864;23.360;2023-04-07T08:47:45;95683.63;;;6.95;55.93
29169;BME280;16219;42.864;23.360;2023-04-07T08:50:15;95683.06;;;6.98;55.98
29169;BME280;16219;42.864;23.360;2023-04-07T08:52:44;95675.47;;;6.96;56.91
29169;BME280;16219;42.864;23.360;2023-04-07T08:55:12;95687.06;;;7.09;58.04
29169;BME280;16219;42.864;23.360;2023-04-07T08:57:42;95685.28;;;7.05;59.47
29169;BME280;16219;42.864;23.360;2023-04-07T09:00:10;95692.13;;;7.06;58.05
29169;BME280;16219;42.864;23.360;2023-04-07T09:02:40;95686.66;;;7.02;61.20
29169;BME280;16219;42.864;23.360;2023-04-07T09:05:10;95692.50;;;7.13;59.89
29169;BME280;16219;42.864;23.360;2023-04-07T09:07:39;95685.91;;;7.01;57.18
29169;BME280;16219;42.864;23.360;2023-04-07T09:10:11;95694.81;;;7.00;58.72
29169;BME280;16219;42.864;23.360;2023-04-07T09:12:38;95700.00;;;7.06;61.83
29169;BME280;16219;42.864;23.360;2023-04-07T09:15:07;95691.34;;;7.19;64.06
29169;BME280;16219;42.864;23.360;2023-04-07T09:17:35;95696.00;;;7.22;59.74
29169;BME280;16219;42.864;23.360;2023-04-07T09:20:03;95697.59;;;7.23;57.34
29169;BME280;16219;42.864;23.360;2023-04-07T09:22:34;95704.78;;;7.31;58.86
29169;BME280;16219;42.864;23.360;2023-04-07T09:25:13;95706.38;;;6.99;58.91
29169;BME280;16219;42.864;23.360;2023-04-07T09:27:40;95700.81;;;6.87;59.74
29169;BME280;16219;42.864;23.360;2023-04-07T09:30:21;95700.47;;;7.08;62.57
29169;BME280;16219;42.864;23.360;2023-04-07T09:32:48;95695.84;;;7.32;66.32
29169;BME280;16219;42.864;23.360;2023-04-07T09:35:16;95698.16;;;7.61;67.16
29169;BME280;16219;42.864;23.360;2023-04-07T09:37:43;95691.22;;;7.79;61.55
29169;BME280;16219;42.864;23.360;2023-04-07T09:40:10;95696.34;;;7.98;59.82
29169;BME280;16219;42.864;23.360;2023-04-07T09:42:44;95693.50;;;8.44;58.56
29169;BME280;16219;42.864;23.360;2023-04-07T09:45:11;95704.25;;;8.34;55.71
29169;BME280;16219;42.864;23.360;2023-04-07T09:47:40;95696.47;;;8.29;56.76
29169;BME280;16219;42.864;23.360;2023-04-07T09:50:07;95708.38;;;8.49;60.32
29169;BME280;16219;42.864;23.360;2023-04-07T09:52:48;95700.88;;;8.56;59.06
29169;BME280;16219;42.864;23.360;2023-04-07T09:55:16;95698.41;;;8.82;61.55
29169;BME280;16219;42.864;23.360;2023-04-07T09:57:47;95693.91;;;9.05;58.21
29169;BME280;16219;42.864;23.360;2023-04-07T10:00:15;95704.38;;;8.96;56.40
29169;BME280;16219;42.864;23.360;2023-04-07T10:02:44;95693.09;;;9.05;60.05
29169;BME280;16219;42.864;23.360;2023-04-07T10:05:12;95695.00;;;9.13;57.42
29169;BME280;16219;42.864;23.360;2023-04-07T10:07:40;95710.56;;;9.23;56.49
29169;BME280;16219;42.864;23.360;2023-04-07T10:10:09;95705.59;;;9.30;57.71
29169;BME280;16219;42.864;23.360;2023-04-07T10:12:37;95708.41;;;9.34;55.39
29169;BME280;16219;42.864;23.360;2023-04-07T10:15:06;95698.84;;;9.07;55.39
29169;BME280;16219;42.864;23.360;2023-04-07T10:17:35;95696.22;;;8.75;56.36
29169;BME280;16219;42.864;23.360;2023-04-07T10:20:06;95700.56;;;8.58;58.57
29169;BME280;16219;42.864;23.360;2023-04-07T10:22:36;95698.13;;;8.25;53.41
29169;BME280;16219;42.864;23.360;2023-04-07T10:25:05;95702.19;;;8.09;59.87
29169;BME280;16219;42.864;23.360;2023-04-07T10:27:39;95702.56;;;8.02;56.79
29169;BME280;16219;42.864;23.360;2023-04-07T10:30:22;95693.06;;;7.92;56.99
29169;BME280;16219;42.864;23.360;2023-04-07T10:32:51;95700.25;;;8.00;55.65
29169;BME280;16219;42.864;23.360;2023-04-07T10:35:20;95689.72;;;8.00;56.86
29169;BME280;16219;42.864;23.360;2023-04-07T10:38:10;95693.78;;;8.07;60.09
29169;BME280;16219;42.864;23.360;2023-04-07T10:40:41;95697.38;;;8.11;57.87
29169;BME280;16219;42.864;23.360;2023-04-07T10:43:09;95703.19;;;7.99;57.09
29169;BME280;16219;42.864;23.360;2023-04-07T10:45:55;95698.84;;;8.17;56.86
29169;BME280;16219;42.864;23.360;2023-04-07T10:48:25;95699.31;;;8.19;56.57
29169;BME280;16219;42.864;23.360;2023-04-07T10:51:17;95700.34;;;8.45;56.81
29169;BME280;16219;42.864;23.360;2023-04-07T10:54:18;95709.06;;;8.55;55.38
29169;BME280;16219;42.864;23.360;2023-04-07T10:57:12;95701.41;;;8.44;51.77
29169;BME280;16219;42.864;23.360;2023-04-07T11:00:15;95701.28;;;8.72;54.17
29169;BME280;16219;42.864;23.360;2023-04-07T11:02:43;95703.31;;;8.97;51.87
29169;BME280;16219;42.864;23.360;2023-04-07T11:05:19;95700.50;;;8.94;51.69
29169;BME280;16219;42.864;23.360;2023-04-07T11:07:53;95704.94;;;9.16;53.23
29169;BME280;16219;42.864;23.360;2023-04-07T11:10:27;95697.63;;;9.13;53.64
29169;BME280;16219;42.864;23.360;2023-04-07T11:12:58;95707.56;;;9.16;53.33
29169;BME280;16219;42.864;23.360;2023-04-07T11:15:26;95708.94;;;8.82;52.03
29169;BME280;16219;42.864;23.360;2023-04-07T11:18:06;95705.72;;;8.63;51.88
29169;BME280;16219;42.864;23.360;2023-04-07T11:20:44;95710.28;;;8.71;53.04
29169;BME280;16219;42.864;23.360;2023-04-07T11:23:14;95715.88;;;8.56;52.90
29169;BME280;16219;42.864;23.360;2023-04-07T11:25:43;95711.97;;;8.53;54.27
29169;BME280;16219;42.864;23.360;2023-04-07T11:28:12;95706.66;;;8.44;53.06
29169;BME280;16219;42.864;23.360;2023-04-07T11:30:44;95708.22;;;8.32;54.56
29169;BME280;16219;42.864;23.360;2023-04-07T11:33:17;95718.66;;;8.23;54.62
29169;BME280;16219;42.864;23.360;2023-04-07T11:35:53;95726.47;;;8.14;55.81
29169;BME280;16219;42.864;23.360;2023-04-07T11:38:23;95723.47;;;8.21;57.16
29169;BME280;16219;42.864;23.360;2023-04-07T11:40:52;95725.94;;;8.04;54.92
29169;BME280;16219;42.864;23.360;2023-04-07T11:43:21;95727.44;;;8.18;55.76
29169;BME280;16219;42.864;23.360;2023-04-07T11:46:05;95727.88;;;8.12;54.20
29169;BME280;16219;42.864;23.360;2023-04-07T11:48:33;95721.03;;;8.24;53.94
29169;BME280;16219;42.864;23.360;2023-04-07T11:51:01;95723.41;;;8.35;53.38
29169;BME280;16219;42.864;23.360;2023-04-07T11:53:32;95717.44;;;8.20;52.64
29169;BME280;16219;42.864;23.360;2023-04-07T11:56:04;95721.66;;;8.08;53.07
29169;BME280;16219;42.864;23.360;2023-04-07T11:58:32;95723.78;;;8.06;52.85
29169;BME280;16219;42.864;23.360;2023-04-07T12:01:00;95726.19;;;8.16;53.42
29169;BME280;16219;42.864;23.360;2023-04-07T12:03:31;95722.97;;;8.19;54.35
29169;BME280;16219;42.864;23.360;2023-04-07T12:05:59;95728.63;;;8.12;54.26
29169;BME280;16219;42.864;23.360;2023-04-07T12:08:38;95713.53;;;8.18;53.88
29169;BME280;16219;42.864;23.360;2023-04-07T12:11:07;95723.50;;;8.43;54.25
29169;BME280;16219;42.864;23.360;2023-04-07T12:13:35;95730.09;;;8.55;55.71
29169;BME280;16219;42.864;23.360;2023-04-07T12:16:03;95728.22;;;8.33;54.23
29169;BME280;16219;42.864;23.360;2023-04-07T12:18:30;95726.59;;;8.09;54.32
29169;BME280;16219;42.864;23.360;2023-04-07T12:20:58;95720.88;;;7.93;54.12
29169;BME280;16219;42.864;23.360;2023-04-07T12:23:26;95725.25;;;7.84;55.98
29169;BME280;16219;42.864;23.360;2023-04-07T12:25:55;95735.09;;;7.92;54.97
29169;BME280;16219;42.864;23.360;2023-04-07T12:28:22;95738.69;;;7.96;55.64
29169;BME280;16219;42.864;23.360;2023-04-07T12:30:53;95725.94;;;7.90;54.85
29169;BME280;16219;42.864;23.360;2023-04-07T12:33:27;95741.09;;;8.07;54.58
29169;BME280;16219;42.864;23.360;2023-04-07T12:35:55;95737.91;;;7.96;55.21
29169;BME280;16219;42.864;23.360;2023-04-07T12:38:23;95732.03;;;8.13;56.97
29169;BME280;16219;42.864;23.360;2023-04-07T12:40:50;95720.06;;;8.20;55.50
29169;BME280;16219;42.864;23.360;2023-04-07T12:43:20;95726.41;;;8.06;54.70
29169;BME280;16219;42.864;23.360;2023-04-07T12:45:48;95728.63;;;8.12;54.34
29169;BME280;16219;42.864;23.360;2023-04-07T12:48:15;95727.09;;;7.97;54.74
29169;BME280;16219;42.864;23.360;2023-04-07T12:50:43;95729.81;;;8.06;54.41
29169;BME280;16219;42.864;23.360;2023-04-07T12:53:10;95722.25;;;7.91;55.69
29169;BME280;16219;42.864;23.360;2023-04-07T12:55:38;95717.34;;;7.98;55.81
29169;BME280;16219;42.864;23.360;2023-04-07T12:58:06;95709.53;;;8.20;56.84
29169;BME280;16219;42.864;23.360;2023-04-07T13:00:34;95720.91;;;8.30;55.97
29169;BME280;16219;42.864;23.360;2023-04-07T13:03:02;95715.22;;;8.50;54.35
29169;BME280;16219;42.864;23.360;2023-04-07T13:05:29;95719.28;;;8.56;56.46
29169;BME280;16219;42.864;23.360;2023-04-07T13:07:56;95721.50;;;8.63;55.45